sensor_id;sensor_type;location;lat;lon;timestamp;pressure;altitude;pressure_sealevel;temperature;humidity
35908;BME280;22003;50.320;8.054;2023-04-07T04:02:28;99478.69;;;6.25;100.00
35908;BME280;22003;50.320;8.054;2023-04-07T04:04:53;99479.38;;;6.41;100.00
35908;BME280;22003;50.320;8.054;2023-04-07T04:07:19;99475.94;;;6.26;100.00
35908;BME280;22003;50.320;8.054;2023-04-07T04:09:44;99478.88;;;6.22;100.00
35908;BME280;22003;50.320;8.054;2023-04-07T04:12:09;99402.28;;;5.72;100.00
35908;BME280;22003;50.320;8.054;2023-04-07T04:14:34;99484.78;;;6.25;100.00
35908;BME280;22003;50.320;8.054;2023-04-07T04:17:00;99482.38;;;6.22;100.00
35908;BME280;22003;50.320;8.054;2023-04-07T04:19:25;99463.03;;;6.09;100.00
35908;BME280;22003;50.320;8.054;2023-04-07T04:21:50;99486.69;;;6.23;100.00
35908;BME280;22003;50.320;8.054;2023-04-07T04:24:16;99488.69;;;6.32;100.00
35908;BME280;22003;50.320;8.054;2023-04-07T04:26:41;99484.09;;;6.36;100.00
35908;BME280;22003;50.320;8.054;2023-04-07T04:29:06;99487.41;;;6.25;100.00
35908;BME280;22003;50.320;8.054;2023-04-07T04:31:31;99426.81;;;6.00;100.00
35908;BME280;22003;50.320;8.054;2023-04-07T04:33:57;99475.34;;;6.35;100.00
35908;BME280;22003;50.320;8.054;2023-04-07T04:36:22;99490.00;;;6.40;100.00
35908;BME280;22003;50.320;8.054;2023-04-07T04:38:48;99453.47;;;6.08;100.00
35908;BME280;22003;50.320;8.054;2023-04-07T04:41:13;99492.28;;;6.31;100.00
35908;BME280;22003;50.320;8.054;2023-04-07T04:43:38;99466.59;;;6.22;100.00
35908;BME280;22003;50.320;8.054;2023-04-07T04:46:04;99478.88;;;6.22;100.00
35908;BME280;22003;50.320;8.054;2023-04-07T04:48:29;99411.44;;;5.79;100.00
35908;BME280;22003;50.320;8.054;2023-04-07T04:50:54;99486.47;;;6.26;100.00
35908;BME280;22003;50.320;8.054;2023-04-07T04:53:20;99491.53;;;6.29;100.00
35908;BME280;22003;50.320;8.054;2023-04-07T04:55:45;99489.88;;;6.28;100.00
35908;BME280;22003;50.320;8.054;2023-04-07T04:58:15;99486.00;;;6.34;100.00
35908;BME280;22003;50.320;8.054;2023-04-07T05:00:41;99495.56;;;6.35;100.00
35908;BME280;22003;50.320;8.054;2023-04-07T05:03:06;99487.13;;;6.30;100.00
35908;BME280;22003;50.320;8.054;2023-04-07T05:05:31;99500.94;;;6.33;100.00
35908;BME280;22003;50.320;8.054;2023-04-07T05:07:56;99438.47;;;5.96;100.00
35908;BME280;22003;50.320;8.054;2023-04-07T05:10:22;99496.41;;;6.35;100.00
35908;BME280;22003;50.320;8.054;2023-04-07T05:12:47;99504.34;;;6.48;100.00
35908;BME280;22003;50.320;8.054;2023-04-07T05:15:12;99502.44;;;6.77;100.00
35908;BME280;22003;50.320;8.054;2023-04-07T05:17:39;99472.44;;;6.40;100.00
35908;BME280;22003;50.320;8.054;2023-04-07T05:20:05;99508.06;;;6.58;100.00
35908;BME280;22003;50.320;8.054;2023-04-07T05:22:30;99502.16;;;6.55;100.00
35908;BME280;22003;50.320;8.054;2023-04-07T05:24:56;99424.19;;;6.00;100.00
35908;BME280;22003;50.320;8.054;2023-04-07T05:27:21;99496.03;;;6.54;100.00
35908;BME280;22003;50.320;8.054;2023-04-07T05:29:46;99496.44;;;6.48;100.00
35908;BME280;22003;50.320;8.054;2023-04-07T05:32:11;99489.06;;;6.41;100.00
35908;BME280;22003;50.320;8.054;2023-04-07T05:34:36;99501.63;;;6.50;100.00
35908;BME280;22003;50.320;8.054;2023-04-07T05:37:02;99504.41;;;6.61;100.00
35908;BME280;22003;50.320;8.054;2023-04-07T05:39:27;99500.75;;;6.49;100.00
35908;BME280;22003;50.320;8.054;2023-04-07T05:41:52;99483.06;;;6.39;100.00
35908;BME280;22003;50.320;8.054;2023-04-07T05:44:17;99500.69;;;6.51;100.00
35908;BME280;22003;50.320;8.054;2023-04-07T05:46:43;99483.44;;;6.32;100.00
35908;BME280;22003;50.320;8.054;2023-04-07T05:49:08;99503.03;;;6.55;100.00
35908;BME280;22003;50.320;8.054;2023-04-07T05:51:33;99501.53;;;6.51;100.00
35908;BME280;22003;50.320;8.054;2023-04-07T05:54:00;99505.72;;;6.54;100.00
35908;BME280;22003;50.320;8.054;2023-04-07T05:56:27;99505.97;;;6.64;100.00
35908;BME280;22003;50.320;8.054;2023-04-07T05:58:52;99380.63;;;5.81;100.00
35908;BME280;22003;50.320;8.054;2023-04-07T06:01:18;99511.75;;;6.56;100.00
35908;BME280;22003;50.320;8.054;2023-04-07T06:03:43;99468.41;;;6.34;100.00
35908;BME280;22003;50.320;8.054;2023-04-07T06:06:09;99512.19;;;6.63;100.00
35908;BME280;22003;50.320;8.054;2023-04-07T06:08:34;99504.72;;;6.69;100.00
35908;BME280;22003;50.320;8.054;2023-04-07T06:10:59;99515.16;;;6.71;100.00
35908;BME280;22003;50.320;8.054;2023-04-07T06:13:25;99499.88;;;6.63;100.00
35908;BME280;22003;50.320;8.054;2023-04-07T06:15:51;99512.63;;;6.69;100.00
35908;BME280;22003;50.320;8.054;2023-04-07T06:18:16;99466.94;;;6.43;100.00
35908;BME280;22003;50.320;8.054;2023-04-07T06:20:41;99383.03;;;5.99;100.00
35908;BME280;22003;50.320;8.054;2023-04-07T06:23:06;99512.78;;;6.80;100.00
35908;BME280;22003;50.320;8.054;2023-04-07T06:25:32;99503.97;;;6.94;100.00
35908;BME280;22003;50.320;8.054;2023-04-07T06:27:57;99514.53;;;7.07;100.00
35908;BME280;22003;50.320;8.054;2023-04-07T06:30:22;99519.34;;;7.00;100.00
35908;BME280;22003;50.320;8.054;2023-04-07T06:32:48;99510.06;;;6.95;100.00
35908;BME280;22003;50.320;8.054;2023-04-07T06:35:13;99507.75;;;7.03;100.00
35908;BME280;22003;50.320;8.054;2023-04-07T06:37:38;99515.47;;;7.06;100.00
35908;BME280;22003;50.320;8.054;2023-04-07T06:40:06;99509.06;;;7.35;100.00
35908;BME280;22003;50.320;8.054;2023-04-07T06:42:31;99512.19;;;7.15;100.00
35908;BME280;22003;50.320;8.054;2023-04-07T06:44:56;99510.50;;;7.14;100.00
35908;BME280;22003;50.320;8.054;2023-04-07T06:47:22;99523.03;;;7.10;100.00
35908;BME280;22003;50.320;8.054;2023-04-07T06:49:48;99518.09;;;7.19;100.00
35908;BME280;22003;50.320;8.054;2023-04-07T06:52:13;99509.97;;;7.09;100.00
35908;BME280;22003;50.320;8.054;2023-04-07T06:54:38;99513.38;;;7.11;100.00
35908;BME280;22003;50.320;8.054;2023-04-07T06:57:03;99512.31;;;7.13;100.00
35908;BME280;22003;50.320;8.054;2023-04-07T06:59:30;99485.22;;;7.11;100.00
35908;BME280;22003;50.320;8.054;2023-04-07T07:01:55;99520.22;;;7.26;100.00
35908;BME280;22003;50.320;8.054;2023-04-07T07:04:21;99524.56;;;7.40;100.00
35908;BME280;22003;50.320;8.054;2023-04-07T07:06:46;99526.44;;;7.25;100.00
35908;BME280;22003;50.320;8.054;2023-04-07T07:09:11;99535.19;;;7.26;100.00
35908;BME280;22003;50.320;8.054;2023-04-07T07:11:37;99540.69;;;7.35;100.00
35908;BME280;22003;50.320;8.054;2023-04-07T07:14:02;99540.25;;;7.54;100.00
35908;BME280;22003;50.320;8.054;2023-04-07T07:16:27;99534.25;;;7.65;100.00
35908;BME280;22003;50.320;8.054;2023-04-07T07:18:53;99548.16;;;7.80;100.00
35908;BME280;22003;50.320;8.054;2023-04-07T07:21:18;99512.84;;;7.31;100.00
35908;BME280;22003;50.320;8.054;2023-04-07T07:23:43;99550.16;;;7.38;100.00
35908;BME280;22003;50.320;8.054;2023-04-07T07:26:08;99552.06;;;7.23;100.00
35908;BME280;22003;50.320;8.054;2023-04-07T07:28:34;99560.69;;;7.12;100.00
35908;BME280;22003;50.320;8.054;2023-04-07T07:30:59;99548.34;;;7.00;100.00
35908;BME280;22003;50.320;8.054;2023-04-07T07:33:25;99554.34;;;7.02;100.00
35908;BME280;22003;50.320;8.054;2023-04-07T07:35:50;99516.84;;;6.72;100.00
35908;BME280;22003;50.320;8.054;2023-04-07T07:38:15;99563.31;;;7.12;100.00
35908;BME280;22003;50.320;8.054;2023-04-07T07:40:40;99564.03;;;7.14;100.00
35908;BME280;22003;50.320;8.054;2023-04-07T07:43:06;99564.16;;;7.26;100.00
35908;BME280;22003;50.320;8.054;2023-04-07T07:45:31;99566.63;;;7.29;100.00
35908;BME280;22003;50.320;8.054;2023-04-07T07:47:56;99570.63;;;7.34;100.00
35908;BME280;22003;50.320;8.054;2023-04-07T07:50:22;99575.59;;;7.39;100.00
35908;BME280;22003;50.320;8.054;2023-04-07T07:52:47;99513.75;;;6.92;100.00
35908;BME280;22003;50.320;8.054;2023-04-07T07:55:12;99572.44;;;7.59;100.00
35908;BME280;22003;50.320;8.054;2023-04-07T07:57:37;99587.94;;;7.51;100.00
35908;BME280;22003;50.320;8.054;2023-04-07T08:00:03;99592.91;;;7.56;100.00
35908;BME280;22003;50.320;8.054;2023-04-07T08:02:28;99582.97;;;7.59;100.00
35908;BME280;22003;50.320;8.054;2023-04-07T08:04:57;99597.28;;;7.43;100.00
35908;BME280;22003;50.320;8.054;2023-04-07T08:07:22;99594.28;;;7.74;100.00
35908;BME280;22003;50.320;8.054;2023-04-07T08:09:47;99590.25;;;7.81;100.00
35908;BME280;22003;50.320;8.054;2023-04-07T08:12:13;99598.91;;;7.58;100.00
35908;BME280;22003;50.320;8.054;2023-04-07T08:14:39;99584.66;;;7.35;100.00
35908;BME280;22003;50.320;8.054;2023-04-07T08:17:04;99603.03;;;7.62;100.00
35908;BME280;22003;50.320;8.054;2023-04-07T08:19:30;99596.56;;;7.66;100.00
35908;BME280;22003;50.320;8.054;2023-04-07T08:21:56;99606.31;;;7.78;100.00
35908;BME280;22003;50.320;8.054;2023-04-07T08:24:21;99613.91;;;7.83;100.00
35908;BME280;22003;50.320;8.054;2023-04-07T08:26:46;99620.00;;;7.71;100.00
35908;BME280;22003;50.320;8.054;2023-04-07T08:29:12;99614.84;;;7.69;100.00
35908;BME280;22003;50.320;8.054;2023-04-07T08:31:37;99620.41;;;7.52;100.00
35908;BME280;22003;50.320;8.054;2023-04-07T08:34:02;99621.25;;;7.39;100.00
35908;BME280;22003;50.320;8.054;2023-04-07T08:36:28;99614.06;;;7.54;100.00
35908;BME280;22003;50.320;8.054;2023-04-07T08:38:54;99572.03;;;7.00;100.00
35908;BME280;22003;50.320;8.054;2023-04-07T08:41:28;99626.41;;;7.54;100.00
35908;BME280;22003;50.320;8.054;2023-04-07T08:43:56;99625.88;;;7.49;100.00
35908;BME280;22003;50.320;8.054;2023-04-07T08:46:24;99631.56;;;7.43;100.00
35908;BME280;22003;50.320;8.054;2023-04-07T08:48:51;99632.63;;;7.40;100.00
35908;BME280;22003;50.320;8.054;2023-04-07T08:54:11;99635.16;;;7.54;100.00
35908;BME280;22003;50.320;8.054;2023-04-07T08:56:37;99636.47;;;7.61;100.00
35908;BME280;22003;50.320;8.054;2023-04-07T08:59:05;99630.84;;;7.53;100.00
35908;BME280;22003;50.320;8.054;2023-04-07T09:01:33;99647.19;;;7.58;100.00
35908;BME280;22003;50.320;8.054;2023-04-07T09:03:59;99633.59;;;7.52;100.00
35908;BME280;22003;50.320;8.054;2023-04-07T09:06:26;99649.94;;;7.57;100.00
35908;BME280;22003;50.320;8.054;2023-04-07T09:08:51;99628.44;;;7.50;100.00
35908;BME280;22003;50.320;8.054;2023-04-07T09:11:16;99649.31;;;7.66;100.00
35908;BME280;22003;50.320;8.054;2023-04-07T09:13:43;99640.59;;;7.91;100.00
35908;BME280;22003;50.320;8.054;2023-04-07T09:16:08;99605.00;;;7.58;100.00
35908;BME280;22003;50.320;8.054;2023-04-07T09:18:33;99664.31;;;8.04;100.00
35908;BME280;22003;50.320;8.054;2023-04-07T09:21:01;99614.59;;;8.10;100.00
35908;BME280;22003;50.320;8.054;2023-04-07T09:25:59;99652.06;;;8.54;100.00
35908;BME280;22003;50.320;8.054;2023-04-07T09:28:41;99613.25;;;8.17;100.00
35908;BME280;22003;50.320;8.054;2023-04-07T09:31:06;99654.72;;;8.41;100.00
35908;BME280;22003;50.320;8.054;2023-04-07T09:33:33;99627.06;;;8.34;100.00
35908;BME280;22003;50.320;8.054;2023-04-07T09:35:59;99646.78;;;8.54;100.00
35908;BME280;22003;50.320;8.054;2023-04-07T09:38:32;99648.56;;;8.53;100.00
35908;BME280;22003;50.320;8.054;2023-04-07T09:41:11;99652.19;;;8.39;100.00
35908;BME280;22003;50.320;8.054;2023-04-07T09:43:41;99651.03;;;8.05;100.00
35908;BME280;22003;50.320;8.054;2023-04-07T09:46:18;99567.47;;;7.67;100.00
35908;BME280;22003;50.320;8.054;2023-04-07T09:48:45;99659.78;;;8.18;100.00
35908;BME280;22003;50.320;8.054;2023-04-07T09:51:12;99662.44;;;8.06;100.00
35908;BME280;22003;50.320;8.054;2023-04-07T09:53:41;99663.06;;;8.09;100.00
35908;BME280;22003;50.320;8.054;2023-04-07T09:56:08;99656.91;;;8.21;100.00
35908;BME280;22003;50.320;8.054;2023-04-07T09:58:34;99650.41;;;8.40;100.00
35908;BME280;22003;50.320;8.054;2023-04-07T10:01:00;99662.19;;;8.60;100.00
35908;BME280;22003;50.320;8.054;2023-04-07T10:03:26;99657.03;;;8.95;100.00
35908;BME280;22003;50.320;8.054;2023-04-07T10:05:52;99591.03;;;8.45;100.00
35908;BME280;22003;50.320;8.054;2023-04-07T10:08:17;99658.97;;;8.80;100.00
35908;BME280;22003;50.320;8.054;2023-04-07T10:10:44;99667.47;;;8.60;100.00
35908;BME280;22003;50.320;8.054;2023-04-07T10:13:10;99623.38;;;8.36;100.00
35908;BME280;22003;50.320;8.054;2023-04-07T10:15:36;99641.75;;;8.12;100.00
35908;BME280;22003;50.320;8.054;2023-04-07T10:18:03;99671.09;;;8.33;100.00
35908;BME280;22003;50.320;8.054;2023-04-07T10:20:31;99665.91;;;8.19;100.00
35908;BME280;22003;50.320;8.054;2023-04-07T10:23:03;99666.75;;;8.19;100.00
35908;BME280;22003;50.320;8.054;2023-04-07T10:25:33;99673.91;;;8.30;100.00
35908;BME280;22003;50.320;8.054;2023-04-07T10:28:05;99672.56;;;8.12;100.00
35908;BME280;22003;50.320;8.054;2023-04-07T10:30:32;99581.13;;;7.22;100.00
35908;BME280;22003;50.320;8.054;2023-04-07T10:32:58;99687.94;;;7.80;100.00
35908;BME280;22003;50.320;8.054;2023-04-07T10:35:23;99679.38;;;7.76;100.00
35908;BME280;22003;50.320;8.054;2023-04-07T10:40:38;99682.97;;;7.88;100.00
35908;BME280;22003;50.320;8.054;2023-04-07T10:43:05;99688.28;;;8.01;100.00
35908;BME280;22003;50.320;8.054;2023-04-07T10:48:10;99641.28;;;8.31;100.00
35908;BME280;22003;50.320;8.054;2023-04-07T10:50:36;99682.63;;;8.82;100.00
35908;BME280;22003;50.320;8.054;2023-04-07T10:53:13;99628.00;;;8.20;100.00
35908;BME280;22003;50.320;8.054;2023-04-07T10:55:39;99689.97;;;9.02;100.00
35908;BME280;22003;50.320;8.054;2023-04-07T10:58:30;99700.38;;;8.80;100.00
35908;BME280;22003;50.320;8.054;2023-04-07T11:03:24;99714.84;;;8.87;100.00
35908;BME280;22003;50.320;8.054;2023-04-07T11:05:49;99709.28;;;8.66;100.00
35908;BME280;22003;50.320;8.054;2023-04-07T11:08:31;99707.06;;;8.72;100.00
35908;BME280;22003;50.320;8.054;2023-04-07T11:10:56;99708.72;;;8.86;100.00
35908;BME280;22003;50.320;8.054;2023-04-07T11:13:22;99710.47;;;8.98;100.00
35908;BME280;22003;50.320;8.054;2023-04-07T11:15:49;99708.00;;;9.32;100.00
35908;BME280;22003;50.320;8.054;2023-04-07T11:18:16;99702.13;;;9.29;100.00
35908;BME280;22003;50.320;8.054;2023-04-07T11:20:52;99701.34;;;9.39;100.00
35908;BME280;22003;50.320;8.054;2023-04-07T11:23:20;99701.16;;;9.30;100.00
35908;BME280;22003;50.320;8.054;2023-04-07T11:25:48;99705.22;;;9.22;100.00
35908;BME280;22003;50.320;8.054;2023-04-07T11:28:14;99697.81;;;9.63;99.30
35908;BME280;22003;50.320;8.054;2023-04-07T11:31:00;99706.94;;;9.59;97.85
35908;BME280;22003;50.320;8.054;2023-04-07T11:33:27;99706.47;;;10.00;97.55
35908;BME280;22003;50.320;8.054;2023-04-07T11:35:58;99711.69;;;9.66;98.19
35908;BME280;22003;50.320;8.054;2023-04-07T11:38:26;99709.84;;;9.56;99.66
35908;BME280;22003;50.320;8.054;2023-04-07T11:40:53;99721.38;;;9.66;99.88
35908;BME280;22003;50.320;8.054;2023-04-07T11:43:20;99722.31;;;9.06;100.00
35908;BME280;22003;50.320;8.054;2023-04-07T11:46:04;99710.19;;;8.90;100.00
35908;BME280;22003;50.320;8.054;2023-04-07T11:48:32;99724.47;;;8.75;100.00
35908;BME280;22003;50.320;8.054;2023-04-07T11:50:58;99724.47;;;8.75;100.00
35908;BME280;22003;50.320;8.054;2023-04-07T11:53:28;99718.81;;;9.05;100.00
35908;BME280;22003;50.320;8.054;2023-04-07T11:58:25;99689.19;;;9.13;100.00
35908;BME280;22003;50.320;8.054;2023-04-07T12:00:57;99719.84;;;9.39;100.00
35908;BME280;22003;50.320;8.054;2023-04-07T12:03:23;99722.13;;;9.20;100.00
35908;BME280;22003;50.320;8.054;2023-04-07T12:05:48;99722.50;;;9.03;100.00
35908;BME280;22003;50.320;8.054;2023-04-07T12:08:14;99668.91;;;8.77;100.00
35908;BME280;22003;50.320;8.054;2023-04-07T12:10:41;99720.53;;;9.65;100.00
35908;BME280;22003;50.320;8.054;2023-04-07T12:13:07;99731.53;;;8.87;100.00
35908;BME280;22003;50.320;8.054;2023-04-07T12:15:36;99736.22;;;8.71;100.00
35908;BME280;22003;50.320;8.054;2023-04-07T12:18:01;99675.72;;;8.30;100.00
35908;BME280;22003;50.320;8.054;2023-04-07T12:20:27;99640.88;;;8.37;100.00
35908;BME280;22003;50.320;8.054;2023-04-07T12:22:53;99745.19;;;8.81;100.00
35908;BME280;22003;50.320;8.054;2023-04-07T12:25:18;99743.06;;;8.86;100.00
35908;BME280;22003;50.320;8.054;2023-04-07T12:27:43;99728.38;;;8.82;100.00
35908;BME280;22003;50.320;8.054;2023-04-07T12:30:09;99750.94;;;9.36;100.00
35908;BME280;22003;50.320;8.054;2023-04-07T12:32:34;99686.47;;;8.65;100.00
35908;BME280;22003;50.320;8.054;2023-04-07T12:35:00;99749.56;;;9.06;100.00
35908;BME280;22003;50.320;8.054;2023-04-07T12:37:25;99717.25;;;9.26;100.00
35908;BME280;22003;50.320;8.054;2023-04-07T12:39:50;99748.75;;;9.53;100.00
35908;BME280;22003;50.320;8.054;2023-04-07T12:42:15;99705.31;;;8.97;100.00
35908;BME280;22003;50.320;8.054;2023-04-07T12:44:41;99745.72;;;9.47;100.00
35908;BME280;22003;50.320;8.054;2023-04-07T12:47:06;99754.09;;;9.41;100.00
35908;BME280;22003;50.320;8.054;2023-04-07T12:49:32;99757.91;;;9.37;100.00
35908;BME280;22003;50.320;8.054;2023-04-07T12:51:57;99730.00;;;8.59;100.00
35908;BME280;22003;50.320;8.054;2023-04-07T12:54:22;99769.09;;;8.41;100.00
35908;BME280;22003;50.320;8.054;2023-04-07T12:56:48;99725.13;;;8.02;100.00
35908;BME280;22003;50.320;8.054;2023-04-07T12:59:13;99761.88;;;8.18;100.00
35908;BME280;22003;50.320;8.054;2023-04-07T13:01:39;99717.38;;;7.74;100.00
35908;BME280;22003;50.320;8.054;2023-04-07T13:04:04;99731.41;;;7.87;100.00
35908;BME280;22003;50.320;8.054;2023-04-07T13:06:29;99774.94;;;8.07;100.00
35908;BME280;22003;50.320;8.054;2023-04-07T13:08:56;99742.63;;;7.90;100.00
35908;BME280;22003;50.320;8.054;2023-04-07T13:11:21;99773.22;;;7.93;100.00
35908;BME280;22003;50.320;8.054;2023-04-07T13:13:46;99783.31;;;7.86;100.00
35908;BME280;22003;50.320;8.054;2023-04-07T13:16:12;99775.00;;;7.92;100.00
35908;BME280;22003;50.320;8.054;2023-04-07T13:18:37;99786.53;;;8.04;100.00
35908;BME280;22003;50.320;8.054;2023-04-07T13:21:02;99789.00;;;8.20;100.00
35908;BME280;22003;50.320;8.054;2023-04-07T13:23:28;99744.31;;;8.04;100.00
35908;BME280;22003;50.320;8.054;2023-04-07T13:25:53;99779.50;;;8.30;100.00
35908;BME280;22003;50.320;8.054;2023-04-07T13:28:18;99783.03;;;8.56;100.00
35908;BME280;22003;50.320;8.054;2023-04-07T13:30:45;99790.31;;;8.65;100.00
35908;BME280;22003;50.320;8.054;2023-04-07T13:33:10;99786.41;;;8.58;100.00
35908;BME280;22003;50.320;8.054;2023-04-07T13:35:36;99785.13;;;8.64;100.00
35908;BME280;22003;50.320;8.054;2023-04-07T13:38:02;99786.84;;;8.78;100.00
35908;BME280;22003;50.320;8.054;2023-04-07T13:40:27;99787.22;;;8.97;100.00
35908;BME280;22003;50.320;8.054;2023-04-07T13:42:53;99767.50;;;9.14;100.00
35908;BME280;22003;50.320;8.054;2023-04-07T13:45:18;99785.03;;;9.28;100.00
35908;BME280;22003;50.320;8.054;2023-04-07T13:47:43;99780.00;;;9.72;100.00
35908;BME280;22003;50.320;8.054;2023-04-07T13:50:08;99781.84;;;10.76;100.00
35908;BME280;22003;50.320;8.054;2023-04-07T13:52:34;99780.75;;;10.78;98.88
35908;BME280;22003;50.320;8.054;2023-04-07T13:55:00;99784.84;;;10.82;98.64
35908;BME280;22003;50.320;8.054;2023-04-07T13:57:26;99778.97;;;9.62;99.72
35908;BME280;22003;50.320;8.054;2023-04-07T13:59:52;99746.13;;;9.30;100.00
35908;BME280;22003;50.320;8.054;2023-04-07T14:02:17;99755.41;;;9.35;100.00
35908;BME280;22003;50.320;8.054;2023-04-07T14:04:43;99774.09;;;10.28;97.39
35908;BME280;22003;50.320;8.054;2023-04-07T14:07:09;99789.22;;;10.26;96.64
35908;BME280;22003;50.320;8.054;2023-04-07T14:09:34;99786.78;;;10.69;94.25
35908;BME280;22003;50.320;8.054;2023-04-07T14:12:00;99735.56;;;10.24;94.06
35908;BME280;22003;50.320;8.054;2023-04-07T14:14:25;99772.63;;;11.36;90.02
35908;BME280;22003;50.320;8.054;2023-04-07T14:16:51;99777.47;;;11.20;92.19
35908;BME280;22003;50.320;8.054;2023-04-07T14:19:19;99776.41;;;11.22;92.08
35908;BME280;22003;50.320;8.054;2023-04-07T14:21:44;99783.00;;;11.71;91.68
35908;BME280;22003;50.320;8.054;2023-04-07T14:24:09;99742.69;;;12.30;84.19
35908;BME280;22003;50.320;8.054;2023-04-07T14:26:35;99769.84;;;12.13;85.96
35908;BME280;22003;50.320;8.054;2023-04-07T14:29:00;99769.50;;;12.48;83.69
35908;BME280;22003;50.320;8.054;2023-04-07T14:31:25;99781.66;;;10.32;89.99
35908;BME280;22003;50.320;8.054;2023-04-07T14:33:50;99775.38;;;9.63;96.28
35908;BME280;22003;50.320;8.054;2023-04-07T14:36:16;99772.41;;;9.07;100.00
35908;BME280;22003;50.320;8.054;2023-04-07T14:38:42;99755.16;;;8.39;100.00
35908;BME280;22003;50.320;8.054;2023-04-07T14:41:08;99690.47;;;7.81;100.00
35908;BME280;22003;50.320;8.054;2023-04-07T14:43:34;99751.09;;;8.21;100.00
35908;BME280;22003;50.320;8.054;2023-04-07T14:46:00;99773.06;;;8.34;100.00
35908;BME280;22003;50.320;8.054;2023-04-07T14:48:25;99790.63;;;8.48;100.00
35908;BME280;22003;50.320;8.054;2023-04-07T14:50:50;99792.41;;;8.60;100.00
35908;BME280;22003;50.320;8.054;2023-04-07T14:53:16;99792.88;;;8.67;100.00
35908;BME280;22003;50.320;8.054;2023-04-07T14:55:41;99793.28;;;8.61;100.00
35908;BME280;22003;50.320;8.054;2023-04-07T14:58:07;99800.13;;;8.76;100.00
35908;BME280;22003;50.320;8.054;2023-04-07T15:00:32;99794.22;;;8.85;100.00
35908;BME280;22003;50.320;8.054;2023-04-07T15:02:58;99795.91;;;8.86;100.00
35908;BME280;22003;50.320;8.054;2023-04-07T15:05:23;99744.78;;;8.36;100.00
35908;BME280;22003;50.320;8.054;2023-04-07T15:07:50;99806.28;;;8.51;100.00
35908;BME280;22003;50.320;8.054;2023-04-07T15:10:16;99807.00;;;8.91;100.00
35908;BME280;22003;50.320;8.054;2023-04-07T15:12:43;99799.16;;;9.03;99.24
35908;BME280;22003;50.320;8.054;2023-04-07T15:15:10;99749.38;;;8.96;98.36
35908;BME280;22003;50.320;8.054;2023-04-07T15:17:35;99805.03;;;9.19;97.02
35908;BME280;22003;50.320;8.054;2023-04-07T15:20:01;99782.44;;;9.02;96.03
35908;BME280;22003;50.320;8.054;2023-04-07T15:22:26;99795.09;;;9.22;95.24
35908;BME280;22003;50.320;8.054;2023-04-07T15:24:51;99811.50;;;9.15;95.55
35908;BME280;22003;50.320;8.054;2023-04-07T15:27:17;99808.97;;;9.13;94.98
35908;BME280;22003;50.320;8.054;2023-04-07T15:29:42;99808.69;;;8.92;96.58
35908;BME280;22003;50.320;8.054;2023-04-07T15:32:07;99810.03;;;8.98;97.92
35908;BME280;22003;50.320;8.054;2023-04-07T15:34:32;99811.41;;;9.04;98.45
35908;BME280;22003;50.320;8.054;2023-04-07T15:36:57;99810.69;;;9.02;96.21
35908;BME280;22003;50.320;8.054;2023-04-07T15:39:23;99810.44;;;9.17;95.73
35908;BME280;22003;50.320;8.054;2023-04-07T15:41:48;99806.63;;;9.09;96.43
35908;BME280;22003;50.320;8.054;2023-04-07T15:44:17;99765.91;;;8.75;97.33
35908;BME280;22003;50.320;8.054;2023-04-07T15:46:43;99710.56;;;8.35;96.53
35908;BME280;22003;50.320;8.054;2023-04-07T15:49:08;99817.88;;;8.87;96.32
35908;BME280;22003;50.320;8.054;2023-04-07T15:51:33;99821.06;;;8.79;96.04
35908;BME280;22003;50.320;8.054;2023-04-07T15:53:58;99788.09;;;8.46;97.08
35908;BME280;22003;50.320;8.054;2023-04-07T15:56:24;99824.00;;;8.75;99.00
35908;BME280;22003;50.320;8.054;2023-04-07T15:58:50;99834.69;;;8.73;98.88
35908;BME280;22003;50.320;8.054;2023-04-07T16:01:15;99834.56;;;8.87;98.79
35908;BME280;22003;50.320;8.054;2023-04-07T16:03:40;99834.38;;;8.90;98.19
35908;BME280;22003;50.320;8.054;2023-04-07T16:06:06;99822.44;;;8.72;97.90
35908;BME280;22003;50.320;8.054;2023-04-07T16:08:31;99835.72;;;9.09;97.86
35908;BME280;22003;50.320;8.054;2023-04-07T16:10:56;99841.03;;;8.96;97.73
35908;BME280;22003;50.320;8.054;2023-04-07T16:13:21;99839.19;;;9.09;98.30
35908;BME280;22003;50.320;8.054;2023-04-07T16:15:46;99841.53;;;9.14;97.19
35908;BME280;22003;50.320;8.054;2023-04-07T16:18:12;99831.59;;;9.05;98.75
35908;BME280;22003;50.320;8.054;2023-04-07T16:20:37;99842.91;;;9.07;98.59
35908;BME280;22003;50.320;8.054;2023-04-07T16:23:02;99843.41;;;9.24;98.94
35908;BME280;22003;50.320;8.054;2023-04-07T16:25:28;99788.16;;;9.33;95.34
35908;BME280;22003;50.320;8.054;2023-04-07T16:27:53;99842.16;;;9.54;92.93
35908;BME280;22003;50.320;8.054;2023-04-07T16:30:19;99843.22;;;9.28;93.87
35908;BME280;22003;50.320;8.054;2023-04-07T16:32:45;99852.72;;;9.05;95.35
35908;BME280;22003;50.320;8.054;2023-04-07T16:35:12;99852.06;;;9.26;96.87
35908;BME280;22003;50.320;8.054;2023-04-07T16:37:38;99843.81;;;9.44;96.18
35908;BME280;22003;50.320;8.054;2023-04-07T16:40:04;99860.47;;;9.57;96.61
35908;BME280;22003;50.320;8.054;2023-04-07T16:42:30;99850.94;;;9.55;95.65
35908;BME280;22003;50.320;8.054;2023-04-07T16:44:55;99849.66;;;9.23;96.93
35908;BME280;22003;50.320;8.054;2023-04-07T16:47:22;99860.75;;;9.16;98.46
35908;BME280;22003;50.320;8.054;2023-04-07T16:49:48;99857.53;;;8.99;99.17
35908;BME280;22003;50.320;8.054;2023-04-07T16:52:13;99870.28;;;8.93;100.00
35908;BME280;22003;50.320;8.054;2023-04-07T16:54:38;99814.53;;;8.32;100.00
35908;BME280;22003;50.320;8.054;2023-04-07T16:57:04;99861.41;;;8.56;100.00
35908;BME280;22003;50.320;8.054;2023-04-07T16:59:30;99869.22;;;8.70;100.00
35908;BME280;22003;50.320;8.054;2023-04-07T17:01:56;99871.13;;;8.81;100.00
35908;BME280;22003;50.320;8.054;2023-04-07T17:04:21;99870.38;;;8.66;100.00
35908;BME280;22003;50.320;8.054;2023-04-07T17:06:47;99881.06;;;9.03;100.00
35908;BME280;22003;50.320;8.054;2023-04-07T17:09:12;99870.81;;;8.85;100.00
35908;BME280;22003;50.320;8.054;2023-04-07T17:11:40;99881.31;;;8.99;100.00
35908;BME280;22003;50.320;8.054;2023-04-07T17:14:05;99876.19;;;8.71;100.00